sensor_id;sensor_type;location;lat;lon;timestamp;P1;durP1;ratioP1;P2;durP2;ratioP2
73938;SDS011;62291;47.554;8.504;2024-03-02T00:01:11;568.30;;;38.20;;
73938;SDS011;62291;47.554;8.504;2024-03-02T00:03:38;516.17;;;37.38;;
73938;SDS011;62291;47.554;8.504;2024-03-02T00:06:05;617.33;;;45.10;;
73938;SDS011;62291;47.554;8.504;2024-03-02T00:08:32;537.25;;;36.38;;
73938;SDS011;62291;47.554;8.504;2024-03-02T00:10:58;593.05;;;39.85;;
73938;SDS011;62291;47.554;8.504;2024-03-02T00:13:26;697.92;;;48.97;;
73938;SDS011;62291;47.554;8.504;2024-03-02T00:15:53;557.30;;;41.97;;
73938;SDS011;62291;47.554;8.504;2024-03-02T00:20:55;600.92;;;57.35;;
73938;SDS011;62291;47.554;8.504;2024-03-02T00:23:22;224.95;;;38.33;;
73938;SDS011;62291;47.554;8.504;2024-03-02T00:25:48;113.70;;;32.75;;
73938;SDS011;62291;47.554;8.504;2024-03-02T00:28:21;108.65;;;32.17;;
73938;SDS011;62291;47.554;8.504;2024-03-02T00:30:59;181.80;;;41.30;;
73938;SDS011;62291;47.554;8.504;2024-03-02T00:36:07;83.50;;;33.67;;
73938;SDS011;62291;47.554;8.504;2024-03-02T00:38:34;79.20;;;31.40;;
73938;SDS011;62291;47.554;8.504;2024-03-02T00:41:35;76.28;;;31.48;;
73938;SDS011;62291;47.554;8.504;2024-03-02T00:44:01;76.43;;;32.08;;
73938;SDS011;62291;47.554;8.504;2024-03-02T00:46:29;63.40;;;31.15;;
73938;SDS011;62291;47.554;8.504;2024-03-02T00:49:00;60.08;;;30.00;;
73938;SDS011;62291;47.554;8.504;2024-03-02T00:51:28;63.60;;;31.92;;
73938;SDS011;62291;47.554;8.504;2024-03-02T00:53:57;66.65;;;30.83;;
73938;SDS011;62291;47.554;8.504;2024-03-02T00:56:25;198.98;;;39.03;;
73938;SDS011;62291;47.554;8.504;2024-03-02T00:58:51;84.18;;;35.53;;
73938;SDS011;62291;47.554;8.504;2024-03-02T01:01:17;325.63;;;47.25;;
73938;SDS011;62291;47.554;8.504;2024-03-02T01:03:44;267.30;;;43.63;;
73938;SDS011;62291;47.554;8.504;2024-03-02T01:06:10;197.73;;;35.88;;
73938;SDS011;62291;47.554;8.504;2024-03-02T01:08:36;99.93;;;29.05;;
73938;SDS011;62291;47.554;8.504;2024-03-02T01:11:03;205.68;;;37.75;;
73938;SDS011;62291;47.554;8.504;2024-03-02T01:13:30;630.60;;;59.55;;
73938;SDS011;62291;47.554;8.504;2024-03-02T01:15:56;1049.38;;;84.85;;
73938;SDS011;62291;47.554;8.504;2024-03-02T01:18:22;1076.97;;;82.70;;
73938;SDS011;62291;47.554;8.504;2024-03-02T01:20:48;946.78;;;78.15;;
73938;SDS011;62291;47.554;8.504;2024-03-02T01:23:19;401.90;;;42.75;;
73938;SDS011;62291;47.554;8.504;2024-03-02T01:25:46;321.08;;;40.28;;
73938;SDS011;62291;47.554;8.504;2024-03-02T01:28:12;454.33;;;40.33;;
73938;SDS011;62291;47.554;8.504;2024-03-02T01:30:38;741.95;;;64.03;;
73938;SDS011;62291;47.554;8.504;2024-03-02T01:33:04;576.25;;;55.88;;
73938;SDS011;62291;47.554;8.504;2024-03-02T01:35:30;410.75;;;45.67;;
73938;SDS011;62291;47.554;8.504;2024-03-02T01:37:56;485.42;;;48.58;;
73938;SDS011;62291;47.554;8.504;2024-03-02T01:40:22;424.35;;;48.33;;
73938;SDS011;62291;47.554;8.504;2024-03-02T01:42:51;648.75;;;56.58;;
73938;SDS011;62291;47.554;8.504;2024-03-02T01:45:19;857.75;;;75.93;;
73938;SDS011;62291;47.554;8.504;2024-03-02T01:47:45;727.75;;;68.18;;
73938;SDS011;62291;47.554;8.504;2024-03-02T01:50:11;886.80;;;76.68;;
73938;SDS011;62291;47.554;8.504;2024-03-02T01:52:37;560.35;;;55.58;;
73938;SDS011;62291;47.554;8.504;2024-03-02T01:55:03;512.25;;;50.05;;
73938;SDS011;62291;47.554;8.504;2024-03-02T01:57:29;666.03;;;66.40;;
73938;SDS011;62291;47.554;8.504;2024-03-02T01:59:55;733.03;;;72.10;;
73938;SDS011;62291;47.554;8.504;2024-03-02T02:02:21;357.00;;;45.83;;
73938;SDS011;62291;47.554;8.504;2024-03-02T02:04:47;361.52;;;46.33;;
73938;SDS011;62291;47.554;8.504;2024-03-02T02:07:13;378.05;;;44.50;;
73938;SDS011;62291;47.554;8.504;2024-03-02T02:09:40;324.95;;;40.92;;
73938;SDS011;62291;47.554;8.504;2024-03-02T02:12:07;287.35;;;39.22;;
73938;SDS011;62291;47.554;8.504;2024-03-02T02:14:33;400.75;;;43.97;;
73938;SDS011;62291;47.554;8.504;2024-03-02T02:16:59;396.15;;;46.47;;
73938;SDS011;62291;47.554;8.504;2024-03-02T02:19:25;378.52;;;41.97;;
73938;SDS011;62291;47.554;8.504;2024-03-02T02:21:50;346.83;;;40.20;;
73938;SDS011;62291;47.554;8.504;2024-03-02T02:24:16;323.20;;;39.08;;
73938;SDS011;62291;47.554;8.504;2024-03-02T02:26:42;320.48;;;41.15;;
73938;SDS011;62291;47.554;8.504;2024-03-02T02:29:07;393.52;;;46.88;;
73938;SDS011;62291;47.554;8.504;2024-03-02T02:31:36;503.23;;;52.00;;
73938;SDS011;62291;47.554;8.504;2024-03-02T02:34:03;848.47;;;73.03;;
73938;SDS011;62291;47.554;8.504;2024-03-02T02:36:29;532.83;;;52.80;;
73938;SDS011;62291;47.554;8.504;2024-03-02T02:38:55;527.92;;;56.58;;
73938;SDS011;62291;47.554;8.504;2024-03-02T02:41:21;434.65;;;48.20;;
73938;SDS011;62291;47.554;8.504;2024-03-02T02:43:47;430.08;;;46.92;;
73938;SDS011;62291;47.554;8.504;2024-03-02T02:46:13;506.52;;;53.85;;
73938;SDS011;62291;47.554;8.504;2024-03-02T02:48:38;490.17;;;52.92;;
73938;SDS011;62291;47.554;8.504;2024-03-02T02:51:04;510.40;;;50.88;;
73938;SDS011;62291;47.554;8.504;2024-03-02T02:53:30;495.63;;;50.70;;
73938;SDS011;62291;47.554;8.504;2024-03-02T02:55:55;654.03;;;63.90;;
73938;SDS011;62291;47.554;8.504;2024-03-02T02:58:21;874.13;;;79.97;;
73938;SDS011;62291;47.554;8.504;2024-03-02T03:00:47;735.35;;;67.65;;
73938;SDS011;62291;47.554;8.504;2024-03-02T03:03:13;420.27;;;52.08;;
73938;SDS011;62291;47.554;8.504;2024-03-02T03:05:38;528.05;;;58.38;;
73938;SDS011;62291;47.554;8.504;2024-03-02T03:08:04;552.28;;;61.40;;
73938;SDS011;62291;47.554;8.504;2024-03-02T03:10:30;726.13;;;76.85;;
73938;SDS011;62291;47.554;8.504;2024-03-02T03:12:55;619.85;;;67.30;;
73938;SDS011;62291;47.554;8.504;2024-03-02T03:15:21;496.85;;;57.13;;
73938;SDS011;62291;47.554;8.504;2024-03-02T03:17:47;420.63;;;54.30;;
73938;SDS011;62291;47.554;8.504;2024-03-02T03:20:12;264.10;;;44.65;;
73938;SDS011;62291;47.554;8.504;2024-03-02T03:22:40;619.83;;;65.38;;
73938;SDS011;62291;47.554;8.504;2024-03-02T03:25:06;507.85;;;60.03;;
73938;SDS011;62291;47.554;8.504;2024-03-02T03:27:34;401.63;;;50.83;;
73938;SDS011;62291;47.554;8.504;2024-03-02T03:30:00;743.65;;;76.78;;
73938;SDS011;62291;47.554;8.504;2024-03-02T03:32:27;516.80;;;58.10;;
73938;SDS011;62291;47.554;8.504;2024-03-02T03:34:53;563.08;;;59.50;;
73938;SDS011;62291;47.554;8.504;2024-03-02T03:37:19;564.70;;;54.78;;
73938;SDS011;62291;47.554;8.504;2024-03-02T03:39:44;628.03;;;65.75;;
73938;SDS011;62291;47.554;8.504;2024-03-02T03:42:10;469.88;;;57.53;;
73938;SDS011;62291;47.554;8.504;2024-03-02T03:44:36;323.30;;;50.83;;
73938;SDS011;62291;47.554;8.504;2024-03-02T03:47:02;550.92;;;65.68;;
73938;SDS011;62291;47.554;8.504;2024-03-02T03:49:27;807.78;;;84.60;;
73938;SDS011;62291;47.554;8.504;2024-03-02T03:51:53;419.58;;;54.80;;
73938;SDS011;62291;47.554;8.504;2024-03-02T03:54:19;563.70;;;63.65;;
73938;SDS011;62291;47.554;8.504;2024-03-02T03:56:44;881.22;;;85.03;;
73938;SDS011;62291;47.554;8.504;2024-03-02T03:59:10;274.60;;;48.67;;
73938;SDS011;62291;47.554;8.504;2024-03-02T04:01:37;309.05;;;46.92;;
73938;SDS011;62291;47.554;8.504;2024-03-02T04:04:02;258.15;;;47.63;;
73938;SDS011;62291;47.554;8.504;2024-03-02T04:06:28;244.35;;;46.97;;
73938;SDS011;62291;47.554;8.504;2024-03-02T04:08:54;280.77;;;50.95;;
73938;SDS011;62291;47.554;8.504;2024-03-02T04:11:20;259.25;;;49.78;;
73938;SDS011;62291;47.554;8.504;2024-03-02T04:13:46;293.50;;;51.20;;
73938;SDS011;62291;47.554;8.504;2024-03-02T04:16:11;221.13;;;44.65;;
73938;SDS011;62291;47.554;8.504;2024-03-02T04:18:37;326.85;;;54.75;;
73938;SDS011;62291;47.554;8.504;2024-03-02T04:21:04;360.42;;;52.35;;
73938;SDS011;62291;47.554;8.504;2024-03-02T04:23:30;575.85;;;69.68;;
73938;SDS011;62291;47.554;8.504;2024-03-02T04:25:56;326.65;;;48.97;;
73938;SDS011;62291;47.554;8.504;2024-03-02T04:28:21;870.28;;;86.93;;
73938;SDS011;62291;47.554;8.504;2024-03-02T04:30:47;991.15;;;87.10;;
73938;SDS011;62291;47.554;8.504;2024-03-02T04:33:13;727.22;;;78.40;;
73938;SDS011;62291;47.554;8.504;2024-03-02T04:35:38;808.60;;;86.00;;
73938;SDS011;62291;47.554;8.504;2024-03-02T04:38:04;586.58;;;72.32;;
73938;SDS011;62291;47.554;8.504;2024-03-02T04:40:30;403.10;;;54.33;;
73938;SDS011;62291;47.554;8.504;2024-03-02T04:42:57;238.60;;;47.92;;
73938;SDS011;62291;47.554;8.504;2024-03-02T04:45:24;437.25;;;56.80;;
73938;SDS011;62291;47.554;8.504;2024-03-02T04:47:50;281.70;;;48.63;;
73938;SDS011;62291;47.554;8.504;2024-03-02T04:50:15;293.75;;;48.38;;
73938;SDS011;62291;47.554;8.504;2024-03-02T04:52:41;282.83;;;48.38;;
73938;SDS011;62291;47.554;8.504;2024-03-02T04:55:07;398.95;;;55.80;;
73938;SDS011;62291;47.554;8.504;2024-03-02T04:57:44;471.17;;;60.50;;
73938;SDS011;62291;47.554;8.504;2024-03-02T05:00:11;485.58;;;54.60;;
73938;SDS011;62291;47.554;8.504;2024-03-02T05:02:37;883.63;;;86.10;;
73938;SDS011;62291;47.554;8.504;2024-03-02T05:05:03;333.65;;;51.40;;
73938;SDS011;62291;47.554;8.504;2024-03-02T05:07:29;364.88;;;50.75;;
73938;SDS011;62291;47.554;8.504;2024-03-02T05:09:55;292.95;;;49.83;;
73938;SDS011;62291;47.554;8.504;2024-03-02T05:12:20;267.02;;;48.97;;
73938;SDS011;62291;47.554;8.504;2024-03-02T05:15:05;310.73;;;46.47;;
73938;SDS011;62291;47.554;8.504;2024-03-02T05:17:32;309.13;;;47.75;;
73938;SDS011;62291;47.554;8.504;2024-03-02T05:19:58;533.88;;;64.40;;
73938;SDS011;62291;47.554;8.504;2024-03-02T05:22:24;680.85;;;74.88;;
73938;SDS011;62291;47.554;8.504;2024-03-02T05:24:49;441.50;;;54.95;;
73938;SDS011;62291;47.554;8.504;2024-03-02T05:27:15;380.50;;;53.30;;
73938;SDS011;62291;47.554;8.504;2024-03-02T05:29:41;317.95;;;49.63;;
73938;SDS011;62291;47.554;8.504;2024-03-02T05:32:06;249.57;;;44.17;;
73938;SDS011;62291;47.554;8.504;2024-03-02T05:34:32;379.95;;;51.53;;
73938;SDS011;62291;47.554;8.504;2024-03-02T05:37:00;718.70;;;69.25;;
73938;SDS011;62291;47.554;8.504;2024-03-02T05:39:26;262.00;;;44.67;;
73938;SDS011;62291;47.554;8.504;2024-03-02T05:41:52;275.40;;;45.35;;
73938;SDS011;62291;47.554;8.504;2024-03-02T05:44:18;312.15;;;50.00;;
73938;SDS011;62291;47.554;8.504;2024-03-02T05:46:44;233.55;;;44.50;;
73938;SDS011;62291;47.554;8.504;2024-03-02T05:49:11;405.10;;;52.00;;
73938;SDS011;62291;47.554;8.504;2024-03-02T05:51:36;442.38;;;56.08;;
73938;SDS011;62291;47.554;8.504;2024-03-02T05:54:02;252.77;;;46.92;;
73938;SDS011;62291;47.554;8.504;2024-03-02T05:56:28;302.63;;;49.15;;
73938;SDS011;62291;47.554;8.504;2024-03-02T05:58:54;534.10;;;63.40;;
73938;SDS011;62291;47.554;8.504;2024-03-02T06:01:44;532.60;;;67.53;;
73938;SDS011;62291;47.554;8.504;2024-03-02T06:04:17;798.92;;;79.97;;
73938;SDS011;62291;47.554;8.504;2024-03-02T06:06:42;811.55;;;77.13;;
73938;SDS011;62291;47.554;8.504;2024-03-02T06:09:08;549.25;;;58.58;;
73938;SDS011;62291;47.554;8.504;2024-03-02T06:11:37;575.42;;;59.58;;
73938;SDS011;62291;47.554;8.504;2024-03-02T06:14:04;361.88;;;49.20;;
73938;SDS011;62291;47.554;8.504;2024-03-02T06:16:31;568.45;;;61.25;;
73938;SDS011;62291;47.554;8.504;2024-03-02T06:18:57;495.52;;;57.67;;
73938;SDS011;62291;47.554;8.504;2024-03-02T06:21:25;435.63;;;54.55;;
73938;SDS011;62291;47.554;8.504;2024-03-02T06:23:52;249.45;;;44.88;;
73938;SDS011;62291;47.554;8.504;2024-03-02T06:26:18;368.00;;;50.85;;
73938;SDS011;62291;47.554;8.504;2024-03-02T06:28:44;506.90;;;58.28;;
73938;SDS011;62291;47.554;8.504;2024-03-02T06:31:10;463.40;;;52.72;;
73938;SDS011;62291;47.554;8.504;2024-03-02T06:33:36;339.27;;;44.80;;
73938;SDS011;62291;47.554;8.504;2024-03-02T06:36:02;290.65;;;46.05;;
73938;SDS011;62291;47.554;8.504;2024-03-02T06:38:27;445.48;;;48.40;;
73938;SDS011;62291;47.554;8.504;2024-03-02T06:40:53;300.42;;;40.35;;
73938;SDS011;62291;47.554;8.504;2024-03-02T06:43:20;209.07;;;41.33;;
73938;SDS011;62291;47.554;8.504;2024-03-02T06:45:49;471.90;;;53.95;;
73938;SDS011;62291;47.554;8.504;2024-03-02T06:48:16;307.20;;;45.38;;
73938;SDS011;62291;47.554;8.504;2024-03-02T06:50:48;430.95;;;49.03;;
73938;SDS011;62291;47.554;8.504;2024-03-02T06:53:14;361.13;;;45.55;;
73938;SDS011;62291;47.554;8.504;2024-03-02T06:55:43;251.40;;;40.70;;
73938;SDS011;62291;47.554;8.504;2024-03-02T06:58:09;225.93;;;35.88;;
73938;SDS011;62291;47.554;8.504;2024-03-02T07:00:36;201.52;;;39.10;;
73938;SDS011;62291;47.554;8.504;2024-03-02T07:03:02;138.93;;;34.53;;
73938;SDS011;62291;47.554;8.504;2024-03-02T07:05:27;200.13;;;37.33;;
73938;SDS011;62291;47.554;8.504;2024-03-02T07:07:53;463.55;;;53.47;;
73938;SDS011;62291;47.554;8.504;2024-03-02T07:10:19;228.95;;;42.08;;
73938;SDS011;62291;47.554;8.504;2024-03-02T07:12:44;195.32;;;39.92;;
73938;SDS011;62291;47.554;8.504;2024-03-02T07:15:10;521.92;;;53.15;;
73938;SDS011;62291;47.554;8.504;2024-03-02T07:17:46;565.03;;;50.70;;
73938;SDS011;62291;47.554;8.504;2024-03-02T07:20:12;346.48;;;46.65;;
73938;SDS011;62291;47.554;8.504;2024-03-02T07:22:38;173.65;;;38.65;;
73938;SDS011;62291;47.554;8.504;2024-03-02T07:25:04;239.48;;;40.20;;
73938;SDS011;62291;47.554;8.504;2024-03-02T07:27:32;417.98;;;49.72;;
73938;SDS011;62291;47.554;8.504;2024-03-02T07:29:58;169.32;;;40.40;;
73938;SDS011;62291;47.554;8.504;2024-03-02T07:32:24;234.50;;;44.95;;
73938;SDS011;62291;47.554;8.504;2024-03-02T07:34:49;242.30;;;38.67;;
73938;SDS011;62291;47.554;8.504;2024-03-02T07:37:16;805.92;;;54.13;;
73938;SDS011;62291;47.554;8.504;2024-03-02T07:39:43;255.32;;;41.97;;
73938;SDS011;62291;47.554;8.504;2024-03-02T07:42:10;337.40;;;36.53;;
73938;SDS011;62291;47.554;8.504;2024-03-02T07:44:35;336.25;;;44.97;;
73938;SDS011;62291;47.554;8.504;2024-03-02T07:47:01;823.13;;;59.05;;
73938;SDS011;62291;47.554;8.504;2024-03-02T07:49:27;333.20;;;39.97;;
73938;SDS011;62291;47.554;8.504;2024-03-02T07:51:53;373.77;;;40.75;;
73938;SDS011;62291;47.554;8.504;2024-03-02T07:54:19;150.55;;;31.13;;
73938;SDS011;62291;47.554;8.504;2024-03-02T07:56:44;355.38;;;38.15;;
73938;SDS011;62291;47.554;8.504;2024-03-02T07:59:10;414.60;;;40.65;;
73938;SDS011;62291;47.554;8.504;2024-03-02T08:01:36;269.83;;;32.60;;
73938;SDS011;62291;47.554;8.504;2024-03-02T08:04:02;750.65;;;56.90;;
73938;SDS011;62291;47.554;8.504;2024-03-02T08:06:29;945.45;;;61.58;;
73938;SDS011;62291;47.554;8.504;2024-03-02T08:08:55;458.63;;;40.55;;
73938;SDS011;62291;47.554;8.504;2024-03-02T08:11:22;499.63;;;44.75;;
73938;SDS011;62291;47.554;8.504;2024-03-02T08:13:48;401.02;;;35.58;;
73938;SDS011;62291;47.554;8.504;2024-03-02T08:16:17;356.02;;;37.28;;
73938;SDS011;62291;47.554;8.504;2024-03-02T08:18:47;554.70;;;43.30;;
73938;SDS011;62291;47.554;8.504;2024-03-02T08:21:13;426.85;;;38.80;;
73938;SDS011;62291;47.554;8.504;2024-03-02T08:23:39;395.27;;;40.92;;
73938;SDS011;62291;47.554;8.504;2024-03-02T08:26:07;502.02;;;49.55;;
73938;SDS011;62291;47.554;8.504;2024-03-02T08:28:33;827.63;;;67.55;;
73938;SDS011;62291;47.554;8.504;2024-03-02T08:30:59;177.70;;;33.63;;
73938;SDS011;62291;47.554;8.504;2024-03-02T08:33:25;240.13;;;35.97;;
73938;SDS011;62291;47.554;8.504;2024-03-02T08:35:51;1044.05;;;65.63;;
73938;SDS011;62291;47.554;8.504;2024-03-02T08:38:17;410.40;;;41.70;;
73938;SDS011;62291;47.554;8.504;2024-03-02T08:40:43;365.48;;;36.85;;
73938;SDS011;62291;47.554;8.504;2024-03-02T08:43:09;363.55;;;37.60;;
73938;SDS011;62291;47.554;8.504;2024-03-02T08:45:35;443.23;;;41.65;;
73938;SDS011;62291;47.554;8.504;2024-03-02T08:48:01;531.88;;;41.42;;
73938;SDS011;62291;47.554;8.504;2024-03-02T08:50:27;454.67;;;34.28;;
73938;SDS011;62291;47.554;8.504;2024-03-02T08:52:52;337.80;;;32.20;;
73938;SDS011;62291;47.554;8.504;2024-03-02T08:55:18;420.00;;;33.88;;
73938;SDS011;62291;47.554;8.504;2024-03-02T08:57:43;535.00;;;43.40;;
73938;SDS011;62291;47.554;8.504;2024-03-02T09:00:09;254.48;;;31.70;;
73938;SDS011;62291;47.554;8.504;2024-03-02T09:02:35;532.25;;;41.13;;
73938;SDS011;62291;47.554;8.504;2024-03-02T09:05:01;235.40;;;31.45;;
73938;SDS011;62291;47.554;8.504;2024-03-02T09:07:27;327.05;;;33.00;;
73938;SDS011;62291;47.554;8.504;2024-03-02T09:09:53;532.28;;;39.05;;
73938;SDS011;62291;47.554;8.504;2024-03-02T09:12:19;191.35;;;27.38;;
73938;SDS011;62291;47.554;8.504;2024-03-02T09:14:45;215.10;;;27.17;;
73938;SDS011;62291;47.554;8.504;2024-03-02T09:17:11;283.80;;;27.02;;
73938;SDS011;62291;47.554;8.504;2024-03-02T09:19:39;270.50;;;25.58;;
73938;SDS011;62291;47.554;8.504;2024-03-02T09:22:05;271.10;;;25.38;;
73938;SDS011;62291;47.554;8.504;2024-03-02T09:24:31;331.13;;;32.83;;
73938;SDS011;62291;47.554;8.504;2024-03-02T09:26:58;313.58;;;28.10;;
73938;SDS011;62291;47.554;8.504;2024-03-02T09:29:24;160.52;;;23.80;;
73938;SDS011;62291;47.554;8.504;2024-03-02T09:31:50;157.35;;;26.95;;
73938;SDS011;62291;47.554;8.504;2024-03-02T09:34:16;107.65;;;24.17;;
73938;SDS011;62291;47.554;8.504;2024-03-02T09:36:42;179.82;;;25.27;;
73938;SDS011;62291;47.554;8.504;2024-03-02T09:39:08;260.20;;;32.15;;
73938;SDS011;62291;47.554;8.504;2024-03-02T09:41:37;105.18;;;25.02;;
73938;SDS011;62291;47.554;8.504;2024-03-02T09:44:03;138.55;;;25.08;;
73938;SDS011;62291;47.554;8.504;2024-03-02T09:46:30;92.60;;;24.15;;
73938;SDS011;62291;47.554;8.504;2024-03-02T09:48:56;48.53;;;19.80;;
73938;SDS011;62291;47.554;8.504;2024-03-02T09:51:22;55.25;;;22.67;;
73938;SDS011;62291;47.554;8.504;2024-03-02T09:53:48;157.10;;;23.10;;
73938;SDS011;62291;47.554;8.504;2024-03-02T09:56:15;37.80;;;20.08;;
73938;SDS011;62291;47.554;8.504;2024-03-02T09:58:43;57.80;;;22.73;;
73938;SDS011;62291;47.554;8.504;2024-03-02T10:01:10;46.38;;;23.27;;
73938;SDS011;62291;47.554;8.504;2024-03-02T10:03:36;101.53;;;26.40;;
73938;SDS011;62291;47.554;8.504;2024-03-02T10:08:48;45.67;;;23.60;;
73938;SDS011;62291;47.554;8.504;2024-03-02T10:11:27;48.08;;;23.67;;
73938;SDS011;62291;47.554;8.504;2024-03-02T10:14:04;32.92;;;18.08;;
73938;SDS011;62291;47.554;8.504;2024-03-02T10:16:34;32.55;;;19.45;;
73938;SDS011;62291;47.554;8.504;2024-03-02T10:19:14;35.33;;;19.33;;
73938;SDS011;62291;47.554;8.504;2024-03-02T10:21:40;31.70;;;18.63;;
73938;SDS011;62291;47.554;8.504;2024-03-02T10:24:07;29.08;;;18.80;;
73938;SDS011;62291;47.554;8.504;2024-03-02T10:26:33;26.70;;;17.33;;
73938;SDS011;62291;47.554;8.504;2024-03-02T10:28:58;27.17;;;18.30;;
73938;SDS011;62291;47.554;8.504;2024-03-02T10:31:24;26.40;;;17.92;;
73938;SDS011;62291;47.554;8.504;2024-03-02T10:33:54;25.55;;;16.83;;
73938;SDS011;62291;47.554;8.504;2024-03-02T10:36:20;25.35;;;16.10;;
73938;SDS011;62291;47.554;8.504;2024-03-02T10:38:46;25.70;;;18.27;;
73938;SDS011;62291;47.554;8.504;2024-03-02T10:41:16;25.52;;;16.60;;
73938;SDS011;62291;47.554;8.504;2024-03-02T10:43:43;25.45;;;17.25;;
73938;SDS011;62291;47.554;8.504;2024-03-02T10:46:10;23.13;;;16.20;;
73938;SDS011;62291;47.554;8.504;2024-03-02T10:48:39;23.60;;;16.52;;
73938;SDS011;62291;47.554;8.504;2024-03-02T10:51:06;25.27;;;17.45;;
73938;SDS011;62291;47.554;8.504;2024-03-02T10:53:32;28.35;;;16.73;;
73938;SDS011;62291;47.554;8.504;2024-03-02T10:55:58;24.65;;;18.05;;
73938;SDS011;62291;47.554;8.504;2024-03-02T10:58:27;23.23;;;15.38;;
73938;SDS011;62291;47.554;8.504;2024-03-02T11:00:57;21.33;;;15.32;;
73938;SDS011;62291;47.554;8.504;2024-03-02T11:03:29;23.95;;;16.50;;
73938;SDS011;62291;47.554;8.504;2024-03-02T11:06:02;22.27;;;16.15;;
73938;SDS011;62291;47.554;8.504;2024-03-02T11:08:31;21.65;;;14.35;;
73938;SDS011;62291;47.554;8.504;2024-03-02T11:11:02;20.80;;;15.20;;
73938;SDS011;62291;47.554;8.504;2024-03-02T11:13:33;18.42;;;13.48;;
73938;SDS011;62291;47.554;8.504;2024-03-02T11:16:02;21.83;;;12.85;;
73938;SDS011;62291;47.554;8.504;2024-03-02T11:18:31;21.08;;;15.63;;
73938;SDS011;62291;47.554;8.504;2024-03-02T11:20:58;22.75;;;15.55;;
73938;SDS011;62291;47.554;8.504;2024-03-02T11:23:34;21.33;;;15.45;;
73938;SDS011;62291;47.554;8.504;2024-03-02T11:26:18;22.33;;;15.38;;
73938;SDS011;62291;47.554;8.504;2024-03-02T11:28:48;21.40;;;16.05;;
73938;SDS011;62291;47.554;8.504;2024-03-02T11:31:14;19.67;;;14.35;;
73938;SDS011;62291;47.554;8.504;2024-03-02T11:33:39;20.40;;;15.23;;
73938;SDS011;62291;47.554;8.504;2024-03-02T11:36:08;21.08;;;15.90;;
73938;SDS011;62291;47.554;8.504;2024-03-02T11:38:35;20.42;;;14.38;;
73938;SDS011;62291;47.554;8.504;2024-03-02T11:41:02;20.23;;;14.63;;
73938;SDS011;62291;47.554;8.504;2024-03-02T11:43:32;18.65;;;14.70;;
73938;SDS011;62291;47.554;8.504;2024-03-02T11:46:01;19.52;;;15.35;;
73938;SDS011;62291;47.554;8.504;2024-03-02T11:48:32;19.50;;;15.00;;
73938;SDS011;62291;47.554;8.504;2024-03-02T11:51:00;19.13;;;14.65;;
73938;SDS011;62291;47.554;8.504;2024-03-02T11:53:26;17.23;;;13.88;;
73938;SDS011;62291;47.554;8.504;2024-03-02T11:55:57;21.75;;;15.25;;
73938;SDS011;62291;47.554;8.504;2024-03-02T11:58:24;19.55;;;15.23;;
73938;SDS011;62291;47.554;8.504;2024-03-02T12:00:51;19.10;;;15.13;;
73938;SDS011;62291;47.554;8.504;2024-03-02T12:03:18;27.02;;;18.45;;
73938;SDS011;62291;47.554;8.504;2024-03-02T12:05:49;19.40;;;14.18;;
73938;SDS011;62291;47.554;8.504;2024-03-02T12:08:15;14.88;;;12.00;;
73938;SDS011;62291;47.554;8.504;2024-03-02T12:10:42;20.05;;;14.43;;
73938;SDS011;62291;47.554;8.504;2024-03-02T12:13:09;19.42;;;15.50;;
73938;SDS011;62291;47.554;8.504;2024-03-02T12:15:36;18.85;;;14.57;;
73938;SDS011;62291;47.554;8.504;2024-03-02T12:18:03;17.42;;;13.05;;
73938;SDS011;62291;47.554;8.504;2024-03-02T12:20:30;15.63;;;12.70;;
73938;SDS011;62291;47.554;8.504;2024-03-02T12:23:04;15.55;;;11.88;;
73938;SDS011;62291;47.554;8.504;2024-03-02T12:25:31;13.68;;;10.93;;
73938;SDS011;62291;47.554;8.504;2024-03-02T12:28:00;13.60;;;10.75;;
73938;SDS011;62291;47.554;8.504;2024-03-02T12:30:27;13.93;;;11.40;;
73938;SDS011;62291;47.554;8.504;2024-03-02T12:32:55;14.02;;;11.20;;
73938;SDS011;62291;47.554;8.504;2024-03-02T12:35:21;12.43;;;9.57;;
73938;SDS011;62291;47.554;8.504;2024-03-02T12:37:48;11.60;;;9.63;;
73938;SDS011;62291;47.554;8.504;2024-03-02T12:40:16;14.77;;;9.90;;
73938;SDS011;62291;47.554;8.504;2024-03-02T12:45:13;11.88;;;9.13;;
73938;SDS011;62291;47.554;8.504;2024-03-02T12:47:41;12.30;;;9.82;;
73938;SDS011;62291;47.554;8.504;2024-03-02T12:50:08;12.52;;;10.00;;
73938;SDS011;62291;47.554;8.504;2024-03-02T12:52:34;11.73;;;9.10;;
73938;SDS011;62291;47.554;8.504;2024-03-02T12:55:01;10.77;;;8.65;;
73938;SDS011;62291;47.554;8.504;2024-03-02T12:57:29;11.05;;;9.10;;
73938;SDS011;62291;47.554;8.504;2024-03-02T13:00:05;11.32;;;8.80;;
73938;SDS011;62291;47.554;8.504;2024-03-02T13:02:35;12.65;;;9.30;;
73938;SDS011;62291;47.554;8.504;2024-03-02T13:05:01;8.45;;;6.65;;
73938;SDS011;62291;47.554;8.504;2024-03-02T13:07:28;10.27;;;8.05;;
73938;SDS011;62291;47.554;8.504;2024-03-02T13:09:55;11.55;;;8.85;;
73938;SDS011;62291;47.554;8.504;2024-03-02T13:12:21;11.25;;;8.15;;
73938;SDS011;62291;47.554;8.504;2024-03-02T13:14:52;10.73;;;8.10;;
73938;SDS011;62291;47.554;8.504;2024-03-02T13:17:19;8.48;;;6.40;;
73938;SDS011;62291;47.554;8.504;2024-03-02T13:19:58;7.60;;;5.43;;
73938;SDS011;62291;47.554;8.504;2024-03-02T13:22:27;5.70;;;5.00;;
73938;SDS011;62291;47.554;8.504;2024-03-02T13:24:53;5.85;;;4.53;;
73938;SDS011;62291;47.554;8.504;2024-03-02T13:27:22;7.60;;;4.25;;
73938;SDS011;62291;47.554;8.504;2024-03-02T13:29:48;4.93;;;3.80;;
73938;SDS011;62291;47.554;8.504;2024-03-02T13:32:15;5.10;;;4.00;;
73938;SDS011;62291;47.554;8.504;2024-03-02T13:34:41;4.90;;;3.35;;
73938;SDS011;62291;47.554;8.504;2024-03-02T13:37:08;3.55;;;2.60;;
73938;SDS011;62291;47.554;8.504;2024-03-02T13:39:34;3.97;;;2.50;;
73938;SDS011;62291;47.554;8.504;2024-03-02T13:42:06;2.92;;;2.33;;
73938;SDS011;62291;47.554;8.504;2024-03-02T13:44:33;2.95;;;2.10;;
73938;SDS011;62291;47.554;8.504;2024-03-02T13:47:02;2.85;;;1.73;;
73938;SDS011;62291;47.554;8.504;2024-03-02T13:49:29;3.45;;;1.90;;
73938;SDS011;62291;47.554;8.504;2024-03-02T13:52:08;4.70;;;1.60;;
73938;SDS011;62291;47.554;8.504;2024-03-02T13:54:40;2.83;;;1.70;;
73938;SDS011;62291;47.554;8.504;2024-03-02T13:57:07;3.08;;;1.75;;
73938;SDS011;62291;47.554;8.504;2024-03-02T13:59:34;2.42;;;1.60;;
73938;SDS011;62291;47.554;8.504;2024-03-02T14:02:01;2.05;;;1.50;;
73938;SDS011;62291;47.554;8.504;2024-03-02T14:04:29;1.70;;;1.30;;
73938;SDS011;62291;47.554;8.504;2024-03-02T14:06:55;2.20;;;1.48;;
73938;SDS011;62291;47.554;8.504;2024-03-02T14:09:21;2.70;;;1.67;;
73938;SDS011;62291;47.554;8.504;2024-03-02T14:11:47;1.90;;;1.40;;
73938;SDS011;62291;47.554;8.504;2024-03-02T14:14:15;3.28;;;1.58;;
73938;SDS011;62291;47.554;8.504;2024-03-02T14:16:41;2.38;;;1.42;;
73938;SDS011;62291;47.554;8.504;2024-03-02T14:19:07;3.13;;;1.80;;
73938;SDS011;62291;47.554;8.504;2024-03-02T14:21:34;2.10;;;1.40;;
73938;SDS011;62291;47.554;8.504;2024-03-02T14:24:01;3.03;;;1.73;;
73938;SDS011;62291;47.554;8.504;2024-03-02T14:26:27;3.47;;;2.30;;